Terminal Aerodrome Forecast
Issued by NWS Paducah, KY

Home | Current Version | Previous Version | Text Only | Print | Product List | Glossary On
Versions: 1 2 3 4 5 6 7 8 9 10 11 12 13 14 15 16
000
FTUS43 KPAH 260823 AAA
TAFPAH
TAF AMD
KPAH 260823Z 2608/2706 32013G23KT P6SM -SHRA VCTS SCT015CB BKN060
      TEMPO 2609/2611 3SM SHRA BKN015
     FM261100 33009KT P6SM VCSH SCT015 BKN060
     FM261600 34007KT P6SM FEW040
     FM270000 34003KT P6SM SKC=

USA.gov is the U.S. government's official web portal to all federal, state and local government web resources and services.